Airfield :
LOGIN :

Register | Disclaimer

   EN    FR    IT 

 










Legend :    VFR   Marginal VFR   IFR   Intensive IFR   Very Intensive IFR
Visi :
Ceiling :
>= 8 km
>= 3000ft
5 to 8 km
1000 to 3000 ft
1500m to 5 km
500 to 1000 ft
800 to 1500m
200 to 500 ft
< 800m
< 200 ft
Symbols :   Thunderstorms  Fog  Heavy snow  Heavy precipitations  Wind > 20 kt
SIGMETs :     Misc.  Thunderstorms  Icing  Turbulence  Mountain Waves  Volcanic Ashes






- Airport Elevation : 357 ft
- IATA code : TUF


LFOT - Tours

CURRENT METAR :
  • 231400Z AUTO 22005KT 150V260 9999 //////CB 18/11 Q1017 TEMPO 2500 TSRA

EXPIRED METARs :
  • 231330Z AUTO 22006KT 180V250 9999 FEW028/// SCT120/// BKN210/// ///TCU 18/11 Q1017 TEMPO 2500 TSRA SCT030CB
  • 231300Z AUTO 24006KT 200V280 9999 FEW028/// SCT072/// BKN094/// ///CB 18/11 Q1017 TEMPO 2500 TSRA
  • 231230Z AUTO 26006KT 220V310 9999 //////CB 18/12 Q1017 TEMPO 2500 TSRA
  • 231200Z AUTO 25004KT 210V290 9999 -RA VCTS FEW025/// SCT058/// OVC070/// ///CB 16/13 Q1017 TEMPO 2500 TSRA
  • 231130Z AUTO 22007KT 190V290 9999 FEW026/// SCT042/// BKN052/// ///CB 17/11 Q1017 TEMPO 2000 TSRA
  • 231100Z AUTO 24006KT 200V280 9999 FEW021/// BKN094/// ///CB 17/12 Q1017 TEMPO 2000 TSRA
  • 231030Z AUTO 30006KT 220V360 9999 SCT024/// BKN041/// BKN049/// ///CB 17/12 Q1017 TEMPO 2000 TSRA
  • 231000Z AUTO 27004KT 240V330 9999 BKN022/// BKN032/// BKN056/// //////TCU 16/11 Q1017 TEMPO 2000 TSRA SCT035CB
  • 230930Z AUTO 26006KT 220V290 9999 BKN019/// BKN024/// BKN076/// ///CB 16/12 Q1017 TEMPO 2000 TSRA

TAF TAF LFOT
Valid from the 23 at 12:00 until the 24 at 12:00 UTC


231100Z 2312/2412 25006KT 9999 SCT030
TEMPO 2312/2321 4000 SHRA SCT030CB
PROB40
TEMPO 2312/2320 VRB10G25KT 2500 TSRA
TEMPO 2402/2408 4000 BR
PROB40
TEMPO 2402/2408 2000 BR BKN003
PROB30
TEMPO 2403/2408 0800 FG VV///
TEMPO 2408/2410 BKN013
PROB40
TEMPO 2411/2412 4000 SHRA SCT030TCU



MET'MAP, your aeronautical weather chart ! - Copyright ORBIFLY December 2007 - Disclaimer

ORBIFLY MET'MAP TEAM :

Programming & Development : Alexandra Zaïnal
Original concept : Baudouin d'Aumeries
Technical & hardware support : Manuel Goepfert
Assistance : Marc-Olivier Méhu




SOURCES & CREDITS :

   NOAA